sensor_id;sensor_type;location;lat;lon;timestamp;pressure;altitude;pressure_sealevel;temperature;humidity
44359;BME280;30077;52.474;13.326;2022-10-22T00:02:28;100425.06;;;12.80;100.00
44359;BME280;30077;52.474;13.326;2022-10-22T00:07:29;100423.06;;;12.83;100.00
44359;BME280;30077;52.474;13.326;2022-10-22T00:12:29;100428.41;;;12.83;100.00
44359;BME280;30077;52.474;13.326;2022-10-22T00:17:29;100433.59;;;12.86;100.00
44359;BME280;30077;52.474;13.326;2022-10-22T00:22:29;100431.66;;;12.88;100.00
44359;BME280;30077;52.474;13.326;2022-10-22T00:27:30;100412.06;;;12.88;100.00
44359;BME280;30077;52.474;13.326;2022-10-22T00:32:30;100407.69;;;12.87;100.00
44359;BME280;30077;52.474;13.326;2022-10-22T00:37:30;100404.03;;;12.88;100.00
44359;BME280;30077;52.474;13.326;2022-10-22T00:42:30;100394.28;;;12.87;100.00
44359;BME280;30077;52.474;13.326;2022-10-22T00:47:35;100396.28;;;12.83;100.00
44359;BME280;30077;52.474;13.326;2022-10-22T00:52:36;100409.66;;;12.83;100.00
44359;BME280;30077;52.474;13.326;2022-10-22T00:57:36;100424.09;;;12.81;100.00
44359;BME280;30077;52.474;13.326;2022-10-22T01:02:37;100417.19;;;12.76;100.00
44359;BME280;30077;52.474;13.326;2022-10-22T01:07:41;100443.09;;;12.76;100.00
44359;BME280;30077;52.474;13.326;2022-10-22T01:12:58;100439.28;;;12.80;100.00
44359;BME280;30077;52.474;13.326;2022-10-22T01:18:05;100441.97;;;12.80;100.00
44359;BME280;30077;52.474;13.326;2022-10-22T01:33:58;100400.28;;;12.76;100.00
44359;BME280;30077;52.474;13.326;2022-10-22T01:38:59;100402.38;;;12.71;100.00
44359;BME280;30077;52.474;13.326;2022-10-22T01:44:01;100405.22;;;12.68;100.00
44359;BME280;30077;52.474;13.326;2022-10-22T01:49:16;100416.00;;;12.66;100.00
44359;BME280;30077;52.474;13.326;2022-10-22T01:54:39;100420.50;;;12.66;100.00
44359;BME280;30077;52.474;13.326;2022-10-22T01:59:49;100422.41;;;12.64;100.00
44359;BME280;30077;52.474;13.326;2022-10-22T02:05:38;100420.75;;;12.61;100.00
44359;BME280;30077;52.474;13.326;2022-10-22T02:10:19;100433.28;;;12.61;100.00
44359;BME280;30077;52.474;13.326;2022-10-22T02:15:22;100431.38;;;12.63;100.00
44359;BME280;30077;52.474;13.326;2022-10-22T02:20:27;100427.94;;;12.61;100.00
44359;BME280;30077;52.474;13.326;2022-10-22T02:25:33;100422.75;;;12.58;100.00
44359;BME280;30077;52.474;13.326;2022-10-22T02:30:37;100410.50;;;12.53;100.00
44359;BME280;30077;52.474;13.326;2022-10-22T02:35:40;100413.25;;;12.52;100.00
44359;BME280;30077;52.474;13.326;2022-10-22T02:40:40;100417.16;;;12.46;100.00
44359;BME280;30077;52.474;13.326;2022-10-22T02:45:42;100428.03;;;12.43;100.00
44359;BME280;30077;52.474;13.326;2022-10-22T02:50:43;100416.53;;;12.41;100.00
44359;BME280;30077;52.474;13.326;2022-10-22T02:55:43;100429.91;;;12.41;100.00
44359;BME280;30077;52.474;13.326;2022-10-22T03:00:43;100432.50;;;12.43;100.00
44359;BME280;30077;52.474;13.326;2022-10-22T03:05:44;100417.31;;;12.43;100.00
44359;BME280;30077;52.474;13.326;2022-10-22T03:10:44;100413.78;;;12.43;100.00
44359;BME280;30077;52.474;13.326;2022-10-22T03:15:47;100412.72;;;12.45;100.00
44359;BME280;30077;52.474;13.326;2022-10-22T03:20:47;100407.38;;;12.45;100.00
44359;BME280;30077;52.474;13.326;2022-10-22T03:25:48;100413.63;;;12.46;100.00
44359;BME280;30077;52.474;13.326;2022-10-22T03:30:48;100415.41;;;12.45;100.00
44359;BME280;30077;52.474;13.326;2022-10-22T03:35:48;100423.44;;;12.45;100.00
44359;BME280;30077;52.474;13.326;2022-10-22T03:40:49;100418.06;;;12.45;100.00
44359;BME280;30077;52.474;13.326;2022-10-22T03:45:49;100411.88;;;12.45;100.00
44359;BME280;30077;52.474;13.326;2022-10-22T03:50:49;100422.50;;;12.46;100.00
44359;BME280;30077;52.474;13.326;2022-10-22T03:55:50;100426.03;;;12.47;100.00
44359;BME280;30077;52.474;13.326;2022-10-22T04:00:50;100431.38;;;12.47;100.00
44359;BME280;30077;52.474;13.326;2022-10-22T04:05:50;100436.75;;;12.47;100.00
44359;BME280;30077;52.474;13.326;2022-10-22T04:10:50;100444.84;;;12.45;100.00
44359;BME280;30077;52.474;13.326;2022-10-22T04:15:51;100450.19;;;12.45;100.00
44359;BME280;30077;52.474;13.326;2022-10-22T04:20:52;100464.53;;;12.44;100.00
44359;BME280;30077;52.474;13.326;2022-10-22T04:26:00;100464.53;;;12.44;100.00
44359;BME280;30077;52.474;13.326;2022-10-22T04:31:07;100468.16;;;12.43;100.00
44359;BME280;30077;52.474;13.326;2022-10-22T04:36:13;100462.00;;;12.41;100.00
44359;BME280;30077;52.474;13.326;2022-10-22T04:41:16;100463.75;;;12.42;100.00
44359;BME280;30077;52.474;13.326;2022-10-22T04:46:17;100454.19;;;12.38;100.00
44359;BME280;30077;52.474;13.326;2022-10-22T04:51:20;100450.72;;;12.36;100.00
44359;BME280;30077;52.474;13.326;2022-10-22T04:56:22;100444.84;;;12.29;100.00
44359;BME280;30077;52.474;13.326;2022-10-22T05:01:31;100449.50;;;12.26;100.00
44359;BME280;30077;52.474;13.326;2022-10-22T05:06:33;100452.34;;;12.23;100.00
44359;BME280;30077;52.474;13.326;2022-10-22T05:11:35;100462.28;;;12.21;100.00
44359;BME280;30077;52.474;13.326;2022-10-22T05:16:36;100450.78;;;12.19;100.00
44359;BME280;30077;52.474;13.326;2022-10-22T05:21:39;100458.97;;;12.16;100.00
44359;BME280;30077;52.474;13.326;2022-10-22T05:26:40;100466.22;;;12.14;100.00
44359;BME280;30077;52.474;13.326;2022-10-22T05:31:40;100461.22;;;12.08;100.00
44359;BME280;30077;52.474;13.326;2022-10-22T05:36:40;100459.50;;;12.07;100.00
44359;BME280;30077;52.474;13.326;2022-10-22T05:41:40;100471.16;;;12.06;100.00
44359;BME280;30077;52.474;13.326;2022-10-22T05:46:41;100475.53;;;12.07;100.00
44359;BME280;30077;52.474;13.326;2022-10-22T05:51:42;100478.22;;;12.07;100.00
44359;BME280;30077;52.474;13.326;2022-10-22T05:56:42;100489.84;;;12.06;100.00
44359;BME280;30077;52.474;13.326;2022-10-22T06:01:43;100482.75;;;12.04;100.00
44359;BME280;30077;52.474;13.326;2022-10-22T06:06:45;100477.56;;;12.01;100.00
44359;BME280;30077;52.474;13.326;2022-10-22T06:11:47;100476.72;;;12.01;100.00
44359;BME280;30077;52.474;13.326;2022-10-22T06:16:48;100492.59;;;12.04;100.00
44359;BME280;30077;52.474;13.326;2022-10-22T06:21:49;100494.00;;;12.11;100.00
44359;BME280;30077;52.474;13.326;2022-10-22T06:26:50;100511.28;;;12.21;100.00
44359;BME280;30077;52.474;13.326;2022-10-22T06:31:51;100511.56;;;12.33;100.00
44359;BME280;30077;52.474;13.326;2022-10-22T06:36:51;100516.31;;;12.43;100.00
44359;BME280;30077;52.474;13.326;2022-10-22T06:41:51;100517.53;;;12.53;100.00
44359;BME280;30077;52.474;13.326;2022-10-22T06:46:52;100531.34;;;12.62;100.00
44359;BME280;30077;52.474;13.326;2022-10-22T06:51:52;100531.72;;;12.71;100.00
44359;BME280;30077;52.474;13.326;2022-10-22T06:56:53;100527.53;;;12.82;100.00
44359;BME280;30077;52.474;13.326;2022-10-22T07:01:54;100531.44;;;12.92;100.00
44359;BME280;30077;52.474;13.326;2022-10-22T07:06:54;100535.31;;;13.02;100.00
44359;BME280;30077;52.474;13.326;2022-10-22T07:11:55;100541.19;;;13.09;100.00
44359;BME280;30077;52.474;13.326;2022-10-22T07:16:55;100540.63;;;13.18;100.00
44359;BME280;30077;52.474;13.326;2022-10-22T07:21:56;100549.16;;;13.26;100.00
44359;BME280;30077;52.474;13.326;2022-10-22T07:26:56;100560.69;;;13.42;100.00
44359;BME280;30077;52.474;13.326;2022-10-22T07:31:57;100548.69;;;13.64;100.00
44359;BME280;30077;52.474;13.326;2022-10-22T07:36:57;100565.63;;;13.80;100.00
44359;BME280;30077;52.474;13.326;2022-10-22T07:41:57;100586.03;;;13.97;100.00
44359;BME280;30077;52.474;13.326;2022-10-22T07:46:57;100603.00;;;14.12;100.00
44359;BME280;30077;52.474;13.326;2022-10-22T07:51:57;100595.56;;;14.17;100.00
44359;BME280;30077;52.474;13.326;2022-10-22T07:56:58;100602.81;;;14.15;100.00
44359;BME280;30077;52.474;13.326;2022-10-22T08:01:58;100617.88;;;14.17;100.00
44359;BME280;30077;52.474;13.326;2022-10-22T08:06:59;100602.47;;;14.21;100.00
44359;BME280;30077;52.474;13.326;2022-10-22T08:11:59;100605.53;;;14.29;100.00
44359;BME280;30077;52.474;13.326;2022-10-22T08:17:00;100612.44;;;14.33;100.00
44359;BME280;30077;52.474;13.326;2022-10-22T08:22:01;100608.59;;;14.37;100.00
44359;BME280;30077;52.474;13.326;2022-10-22T08:27:01;100617.25;;;14.42;100.00
44359;BME280;30077;52.474;13.326;2022-10-22T08:32:02;100622.81;;;14.39;100.00
44359;BME280;30077;52.474;13.326;2022-10-22T08:37:02;100642.75;;;14.35;100.00
44359;BME280;30077;52.474;13.326;2022-10-22T08:52:17;100641.84;;;14.65;100.00
44359;BME280;30077;52.474;13.326;2022-10-22T09:02:34;100643.72;;;14.91;100.00
44359;BME280;30077;52.474;13.326;2022-10-22T09:07:40;100655.25;;;15.08;100.00
44359;BME280;30077;52.474;13.326;2022-10-22T09:12:41;100653.09;;;15.13;100.00
44359;BME280;30077;52.474;13.326;2022-10-22T09:17:55;100653.38;;;15.23;100.00
44359;BME280;30077;52.474;13.326;2022-10-22T09:28:08;100673.72;;;15.68;100.00
44359;BME280;30077;52.474;13.326;2022-10-22T09:38:12;100674.94;;;16.04;100.00
44359;BME280;30077;52.474;13.326;2022-10-22T09:43:13;100682.94;;;16.18;100.00
44359;BME280;30077;52.474;13.326;2022-10-22T09:48:20;100680.28;;;16.44;100.00
44359;BME280;30077;52.474;13.326;2022-10-22T09:53:24;100685.59;;;16.71;100.00
44359;BME280;30077;52.474;13.326;2022-10-22T09:58:26;100689.75;;;16.62;100.00
44359;BME280;30077;52.474;13.326;2022-10-22T10:03:28;100696.84;;;16.37;100.00
44359;BME280;30077;52.474;13.326;2022-10-22T10:08:29;100699.84;;;16.20;100.00
44359;BME280;30077;52.474;13.326;2022-10-22T10:29:38;100696.59;;;16.15;100.00
44359;BME280;30077;52.474;13.326;2022-10-22T10:50:55;100694.53;;;16.06;100.00
44359;BME280;30077;52.474;13.326;2022-10-22T11:01:41;100701.91;;;17.31;100.00
44359;BME280;30077;52.474;13.326;2022-10-22T11:06:43;100685.28;;;17.98;100.00
44359;BME280;30077;52.474;13.326;2022-10-22T11:11:47;100696.88;;;18.47;100.00
44359;BME280;30077;52.474;13.326;2022-10-22T11:17:14;100691.88;;;18.18;100.00
44359;BME280;30077;52.474;13.326;2022-10-22T11:22:34;100691.94;;;18.41;100.00
44359;BME280;30077;52.474;13.326;2022-10-22T11:27:59;100694.59;;;18.29;100.00
44359;BME280;30077;52.474;13.326;2022-10-22T11:33:04;100697.00;;;18.10;100.00
44359;BME280;30077;52.474;13.326;2022-10-22T11:38:06;100693.03;;;18.03;100.00
44359;BME280;30077;52.474;13.326;2022-10-22T11:43:10;100690.78;;;17.97;100.00
44359;BME280;30077;52.474;13.326;2022-10-22T11:48:15;100693.75;;;17.94;100.00
44359;BME280;30077;52.474;13.326;2022-10-22T11:53:19;100688.44;;;17.92;100.00
44359;BME280;30077;52.474;13.326;2022-10-22T12:08:32;100695.31;;;17.72;100.00
44359;BME280;30077;52.474;13.326;2022-10-22T12:19:14;100698.34;;;17.68;100.00
44359;BME280;30077;52.474;13.326;2022-10-22T12:24:18;100695.78;;;17.66;100.00
44359;BME280;30077;52.474;13.326;2022-10-22T12:29:21;100689.53;;;17.66;100.00
44359;BME280;30077;52.474;13.326;2022-10-22T12:34:26;100691.22;;;17.67;100.00
44359;BME280;30077;52.474;13.326;2022-10-22T12:39:28;100700.13;;;17.56;100.00
44359;BME280;30077;52.474;13.326;2022-10-22T12:44:31;100698.63;;;17.52;100.00
44359;BME280;30077;52.474;13.326;2022-10-22T12:49:39;100693.22;;;17.52;100.00
44359;BME280;30077;52.474;13.326;2022-10-22T12:54:41;100686.13;;;17.51;100.00
44359;BME280;30077;52.474;13.326;2022-10-22T12:59:44;100684.72;;;17.45;100.00
44359;BME280;30077;52.474;13.326;2022-10-22T13:05:21;100690.97;;;17.46;100.00
44359;BME280;30077;52.474;13.326;2022-10-22T13:10:31;100697.34;;;17.45;100.00
44359;BME280;30077;52.474;13.326;2022-10-22T13:20:32;100700.19;;;17.43;100.00
44359;BME280;30077;52.474;13.326;2022-10-22T13:25:36;100707.06;;;17.47;100.00
44359;BME280;30077;52.474;13.326;2022-10-22T13:30:41;100699.91;;;17.46;100.00
44359;BME280;30077;52.474;13.326;2022-10-22T13:35:50;100704.47;;;17.46;100.00
44359;BME280;30077;52.474;13.326;2022-10-22T13:40:51;100705.56;;;17.43;100.00
44359;BME280;30077;52.474;13.326;2022-10-22T13:45:54;100704.94;;;17.40;100.00
44359;BME280;30077;52.474;13.326;2022-10-22T13:50:56;100713.34;;;17.35;100.00
44359;BME280;30077;52.474;13.326;2022-10-22T13:55:56;100722.28;;;17.36;100.00
44359;BME280;30077;52.474;13.326;2022-10-22T14:00:58;100718.09;;;17.31;100.00
44359;BME280;30077;52.474;13.326;2022-10-22T14:05:59;100725.44;;;17.29;100.00
44359;BME280;30077;52.474;13.326;2022-10-22T14:11:00;100721.97;;;17.27;100.00
44359;BME280;30077;52.474;13.326;2022-10-22T14:16:00;100729.44;;;17.24;100.00
44359;BME280;30077;52.474;13.326;2022-10-22T14:21:02;100727.38;;;17.27;100.00
44359;BME280;30077;52.474;13.326;2022-10-22T14:26:19;100726.94;;;17.21;100.00
44359;BME280;30077;52.474;13.326;2022-10-22T14:31:21;100731.94;;;17.14;100.00
44359;BME280;30077;52.474;13.326;2022-10-22T14:36:21;100731.31;;;17.11;100.00
44359;BME280;30077;52.474;13.326;2022-10-22T14:41:23;100737.22;;;17.03;100.00
44359;BME280;30077;52.474;13.326;2022-10-22T14:46:24;100746.16;;;16.91;100.00
44359;BME280;30077;52.474;13.326;2022-10-22T14:51:24;100742.81;;;16.87;100.00
44359;BME280;30077;52.474;13.326;2022-10-22T14:56:24;100742.31;;;16.82;100.00
44359;BME280;30077;52.474;13.326;2022-10-22T15:01:25;100757.81;;;16.78;100.00
44359;BME280;30077;52.474;13.326;2022-10-22T15:06:25;100755.19;;;16.64;100.00
44359;BME280;30077;52.474;13.326;2022-10-22T15:11:25;100750.84;;;16.49;100.00
44359;BME280;30077;52.474;13.326;2022-10-22T15:16:26;100758.88;;;16.36;100.00
44359;BME280;30077;52.474;13.326;2022-10-22T15:21:26;100759.06;;;16.20;100.00
44359;BME280;30077;52.474;13.326;2022-10-22T15:26:26;100760.06;;;16.05;100.00
44359;BME280;30077;52.474;13.326;2022-10-22T15:31:43;100761.88;;;15.92;100.00
44359;BME280;30077;52.474;13.326;2022-10-22T15:36:44;100763.63;;;15.78;100.00
44359;BME280;30077;52.474;13.326;2022-10-22T15:41:44;100772.66;;;15.63;100.00
44359;BME280;30077;52.474;13.326;2022-10-22T15:46:46;100766.31;;;15.50;100.00
44359;BME280;30077;52.474;13.326;2022-10-22T15:51:46;100769.03;;;15.35;100.00
44359;BME280;30077;52.474;13.326;2022-10-22T15:56:47;100767.13;;;15.23;100.00
44359;BME280;30077;52.474;13.326;2022-10-22T16:01:47;100775.97;;;15.11;100.00
44359;BME280;30077;52.474;13.326;2022-10-22T16:06:50;100776.03;;;14.95;100.00
44359;BME280;30077;52.474;13.326;2022-10-22T16:11:54;100781.50;;;14.79;100.00
44359;BME280;30077;52.474;13.326;2022-10-22T16:16:55;100783.00;;;14.69;100.00
44359;BME280;30077;52.474;13.326;2022-10-22T16:21:55;100784.50;;;14.59;100.00
44359;BME280;30077;52.474;13.326;2022-10-22T16:26:55;100801.06;;;14.51;100.00
44359;BME280;30077;52.474;13.326;2022-10-22T16:31:56;100793.53;;;14.42;100.00
44359;BME280;30077;52.474;13.326;2022-10-22T16:36:56;100796.69;;;14.34;100.00
44359;BME280;30077;52.474;13.326;2022-10-22T16:41:58;100798.94;;;14.26;100.00
44359;BME280;30077;52.474;13.326;2022-10-22T16:46:58;100811.75;;;14.21;100.00
44359;BME280;30077;52.474;13.326;2022-10-22T16:51:59;100810.22;;;14.17;100.00
44359;BME280;30077;52.474;13.326;2022-10-22T16:57:01;100813.22;;;14.11;100.00
44359;BME280;30077;52.474;13.326;2022-10-22T17:02:01;100834.97;;;14.06;100.00
44359;BME280;30077;52.474;13.326;2022-10-22T17:07:02;100834.28;;;14.03;100.00
44359;BME280;30077;52.474;13.326;2022-10-22T17:12:02;100837.56;;;14.08;100.00
44359;BME280;30077;52.474;13.326;2022-10-22T17:17:02;100848.00;;;14.12;100.00
44359;BME280;30077;52.474;13.326;2022-10-22T17:22:03;100854.16;;;14.14;100.00
44359;BME280;30077;52.474;13.326;2022-10-22T17:27:04;100857.97;;;14.10;100.00
44359;BME280;30077;52.474;13.326;2022-10-22T17:32:04;100862.06;;;14.02;100.00
44359;BME280;30077;52.474;13.326;2022-10-22T17:37:05;100868.72;;;13.94;100.00
44359;BME280;30077;52.474;13.326;2022-10-22T17:42:05;100864.66;;;13.87;100.00
44359;BME280;30077;52.474;13.326;2022-10-22T17:47:05;100874.75;;;13.82;100.00
44359;BME280;30077;52.474;13.326;2022-10-22T17:52:06;100873.19;;;13.78;100.00
44359;BME280;30077;52.474;13.326;2022-10-22T17:57:11;100865.25;;;13.77;100.00
44359;BME280;30077;52.474;13.326;2022-10-22T18:02:17;100870.94;;;13.86;100.00
44359;BME280;30077;52.474;13.326;2022-10-22T18:07:17;100876.56;;;13.97;100.00
44359;BME280;30077;52.474;13.326;2022-10-22T18:12:17;100885.84;;;14.08;100.00
44359;BME280;30077;52.474;13.326;2022-10-22T18:17:17;100885.25;;;14.18;100.00
44359;BME280;30077;52.474;13.326;2022-10-22T18:22:18;100887.47;;;14.26;100.00
44359;BME280;30077;52.474;13.326;2022-10-22T18:27:18;100882.91;;;14.28;100.00
44359;BME280;30077;52.474;13.326;2022-10-22T18:32:18;100892.84;;;14.26;100.00
44359;BME280;30077;52.474;13.326;2022-10-22T18:37:18;100896.06;;;14.17;100.00
44359;BME280;30077;52.474;13.326;2022-10-22T18:42:19;100895.13;;;14.02;100.00
44359;BME280;30077;52.474;13.326;2022-10-22T18:47:19;100894.16;;;13.87;100.00
44359;BME280;30077;52.474;13.326;2022-10-22T18:52:19;100901.13;;;13.74;100.00
44359;BME280;30077;52.474;13.326;2022-10-22T18:57:20;100887.44;;;13.63;100.00
44359;BME280;30077;52.474;13.326;2022-10-22T19:02:20;100901.47;;;13.51;100.00
44359;BME280;30077;52.474;13.326;2022-10-22T19:07:20;100899.31;;;13.41;100.00
44359;BME280;30077;52.474;13.326;2022-10-22T19:12:20;100902.47;;;13.32;100.00
44359;BME280;30077;52.474;13.326;2022-10-22T19:17:21;100906.41;;;13.25;100.00
44359;BME280;30077;52.474;13.326;2022-10-22T19:22:21;100910.31;;;13.18;100.00
44359;BME280;30077;52.474;13.326;2022-10-22T19:27:21;100909.63;;;13.14;100.00
44359;BME280;30077;52.474;13.326;2022-10-22T19:32:22;100924.06;;;13.12;100.00
44359;BME280;30077;52.474;13.326;2022-10-22T19:37:22;100920.50;;;13.11;100.00
44359;BME280;30077;52.474;13.326;2022-10-22T19:42:22;100934.81;;;13.10;100.00
44359;BME280;30077;52.474;13.326;2022-10-22T19:47:22;100937.28;;;13.15;100.00
44359;BME280;30077;52.474;13.326;2022-10-22T19:52:23;100946.59;;;13.25;100.00
44359;BME280;30077;52.474;13.326;2022-10-22T19:57:23;100946.22;;;13.33;100.00
44359;BME280;30077;52.474;13.326;2022-10-22T20:02:23;100946.75;;;13.39;100.00
44359;BME280;30077;52.474;13.326;2022-10-22T20:07:26;100956.34;;;13.43;100.00
44359;BME280;30077;52.474;13.326;2022-10-22T20:12:28;100965.09;;;13.47;100.00
44359;BME280;30077;52.474;13.326;2022-10-22T20:17:28;100971.16;;;13.51;100.00
44359;BME280;30077;52.474;13.326;2022-10-22T20:22:28;100971.16;;;13.51;100.00
44359;BME280;30077;52.474;13.326;2022-10-22T20:27:28;100977.25;;;13.54;100.00
44359;BME280;30077;52.474;13.326;2022-10-22T20:32:29;100988.59;;;13.59;100.00
44359;BME280;30077;52.474;13.326;2022-10-22T20:37:29;100984.00;;;13.61;100.00
44359;BME280;30077;52.474;13.326;2022-10-22T20:42:29;100992.84;;;13.63;100.00
44359;BME280;30077;52.474;13.326;2022-10-22T20:47:29;100990.97;;;13.65;100.00
44359;BME280;30077;52.474;13.326;2022-10-22T20:52:30;100995.44;;;13.65;100.00
44359;BME280;30077;52.474;13.326;2022-10-22T20:57:30;100997.19;;;13.66;100.00
44359;BME280;30077;52.474;13.326;2022-10-22T21:02:31;101009.34;;;13.73;100.00
44359;BME280;30077;52.474;13.326;2022-10-22T21:07:35;101009.94;;;13.78;100.00
44359;BME280;30077;52.474;13.326;2022-10-22T21:12:35;101010.75;;;13.80;100.00
44359;BME280;30077;52.474;13.326;2022-10-22T21:17:40;101003.47;;;13.82;100.00
44359;BME280;30077;52.474;13.326;2022-10-22T21:22:40;101013.03;;;13.88;100.00
44359;BME280;30077;52.474;13.326;2022-10-22T21:27:41;101022.09;;;13.85;100.00
44359;BME280;30077;52.474;13.326;2022-10-22T21:32:41;101023.97;;;13.83;100.00
44359;BME280;30077;52.474;13.326;2022-10-22T21:37:41;101024.94;;;13.82;100.00
44359;BME280;30077;52.474;13.326;2022-10-22T21:42:41;101034.63;;;13.85;100.00
44359;BME280;30077;52.474;13.326;2022-10-22T21:47:42;101037.31;;;13.85;100.00
44359;BME280;30077;52.474;13.326;2022-10-22T21:52:42;101042.75;;;13.83;100.00
44359;BME280;30077;52.474;13.326;2022-10-22T21:57:42;101039.28;;;13.81;100.00
44359;BME280;30077;52.474;13.326;2022-10-22T22:02:43;101041.16;;;13.79;100.00
44359;BME280;30077;52.474;13.326;2022-10-22T22:07:43;101037.56;;;13.80;100.00
44359;BME280;30077;52.474;13.326;2022-10-22T22:12:43;101030.94;;;13.70;100.00
44359;BME280;30077;52.474;13.326;2022-10-22T22:17:44;101022.75;;;13.56;100.00
44359;BME280;30077;52.474;13.326;2022-10-22T22:22:45;101033.00;;;13.47;100.00
44359;BME280;30077;52.474;13.326;2022-10-22T22:27:45;101032.84;;;13.33;100.00
44359;BME280;30077;52.474;13.326;2022-10-22T22:32:45;101028.78;;;13.24;100.00
44359;BME280;30077;52.474;13.326;2022-10-22T22:37:46;101023.03;;;13.15;100.00
44359;BME280;30077;52.474;13.326;2022-10-22T22:42:46;101015.50;;;13.04;100.00
44359;BME280;30077;52.474;13.326;2022-10-22T22:47:47;101025.66;;;12.97;100.00
44359;BME280;30077;52.474;13.326;2022-10-22T22:52:47;101020.59;;;12.91;100.00
44359;BME280;30077;52.474;13.326;2022-10-22T22:57:47;101028.00;;;12.86;100.00
44359;BME280;30077;52.474;13.326;2022-10-22T23:02:52;101032.06;;;12.76;100.00
44359;BME280;30077;52.474;13.326;2022-10-22T23:07:53;101028.88;;;12.68;100.00
44359;BME280;30077;52.474;13.326;2022-10-22T23:12:54;101030.13;;;12.61;100.00
44359;BME280;30077;52.474;13.326;2022-10-22T23:17:55;101033.16;;;12.53;100.00
44359;BME280;30077;52.474;13.326;2022-10-22T23:22:55;101035.41;;;12.43;100.00
44359;BME280;30077;52.474;13.326;2022-10-22T23:27:56;101034.91;;;12.35;100.00
44359;BME280;30077;52.474;13.326;2022-10-22T23:32:57;101045.00;;;12.28;100.00
44359;BME280;30077;52.474;13.326;2022-10-22T23:37:57;101042.56;;;12.24;100.00
44359;BME280;30077;52.474;13.326;2022-10-22T23:42:57;101032.91;;;12.20;100.00
44359;BME280;30077;52.474;13.326;2022-10-22T23:47:58;101040.19;;;12.16;100.00
44359;BME280;30077;52.474;13.326;2022-10-22T23:52:58;101036.78;;;12.13;100.00
44359;BME280;30077;52.474;13.326;2022-10-22T23:57:58;101040.56;;;12.09;100.00
